Time;durP1;ratioP1;P1;durP2;ratioP2;P2;SDS_P1;SDS_P2;PMS_P1;PMS_P2;Temp;Humidity;BMP_temperature;BMP_pressure;BME280_temperature;BME280_humidity;BME280_pressure;Samples;Min_cycle;Max_cycle;Signal;HPM_P1;HPM_P2
2022/06/03 00:01:56;;;;;;;3.50;3.20;;;24.60;44.00;;;;;;4989148;28;20445;-44
2022/06/03 00:04:52;;;;;;;2.97;2.77;;;24.50;44.60;;;;;;4989816;28;20445;-45
2022/06/03 00:07:37;;;;;;;2.90;2.70;;;24.50;44.20;;;;;;4980475;28;20450;-41
2022/06/03 00:10:23;;;;;;;2.97;2.70;;;24.50;44.10;;;;;;4986762;28;20533;-43
2022/06/03 00:12:49;;;;;;;3.20;3.00;;;24.40;44.00;;;;;;4985458;28;20467;-43
2022/06/03 00:15:30;;;;;;;3.10;2.60;;;24.30;44.10;;;;;;4984762;28;20447;-44
2022/06/03 00:18:16;;;;;;;4.27;3.00;;;24.30;44.30;;;;;;4992586;28;20261;-41
2022/06/03 00:21:02;;;;;;;2.97;2.77;;;24.30;44.40;;;;;;4981014;28;21128;-43
2022/06/03 00:24:05;;;;;;;3.10;2.73;;;24.30;44.30;;;;;;4987665;28;20952;-42
2022/06/03 00:26:34;;;;;;;3.23;2.93;;;24.40;44.10;;;;;;4978658;28;20468;-42
2022/06/03 00:29:22;;;;;;;3.23;2.90;;;24.40;43.90;;;;;;4987268;28;20446;-42
2022/06/03 00:32:03;;;;;;;3.17;2.97;;;24.40;44.00;;;;;;4976321;28;20446;-43
2022/06/03 00:34:50;;;;;;;5.17;3.33;;;24.30;43.80;;;;;;4976861;28;20484;-45
2022/06/03 00:37:35;;;;;;;3.50;3.20;;;24.30;43.90;;;;;;4985561;28;20482;-45
2022/06/03 00:40:27;;;;;;;3.27;2.90;;;24.30;44.00;;;;;;4985576;28;20445;-43
2022/06/03 00:43:14;;;;;;;2.70;2.50;;;24.30;43.90;;;;;;4985697;28;20978;-44
2022/06/03 00:45:55;;;;;;;3.43;3.00;;;24.30;43.90;;;;;;4987178;28;20465;-43
2022/06/03 00:48:42;;;;;;;3.47;3.10;;;24.30;43.90;;;;;;4986927;28;20450;-43
2022/06/03 00:51:26;;;;;;;4.43;2.97;;;24.20;43.80;;;;;;4983243;28;20457;-43
2022/06/03 00:54:19;;;;;;;3.37;3.10;;;24.20;43.90;;;;;;4984645;28;21035;-46
2022/06/03 00:57:01;;;;;;;3.50;3.20;;;24.20;44.00;;;;;;4983875;28;20472;-43
2022/06/03 00:59:38;;;;;;;3.77;3.17;;;24.10;44.20;;;;;;4984806;28;20468;-44
2022/06/03 01:02:19;;;;;;;3.27;3.07;;;24.10;44.20;;;;;;4983150;28;20457;-44
2022/06/03 01:04:47;;;;;;;4.70;3.37;;;24.10;44.40;;;;;;4986678;28;20449;-43
2022/06/03 01:07:32;;;;;;;3.50;3.03;;;24.00;44.40;;;;;;4983061;28;20446;-43
2022/06/03 01:10:27;;;;;;;2.83;2.63;;;24.00;44.30;;;;;;4982132;28;20477;-45
2022/06/03 01:12:56;;;;;;;3.63;3.33;;;24.00;44.40;;;;;;4980998;28;20454;-44
2022/06/03 01:15:37;;;;;;;3.07;2.87;;;24.00;44.50;;;;;;4978370;28;20929;-44
2022/06/03 01:18:20;;;;;;;2.97;2.77;;;24.00;44.40;;;;;;4992517;28;20516;-43
2022/06/03 01:21:14;;;;;;;3.80;3.40;;;24.00;44.40;;;;;;4985074;28;20442;-44
2022/06/03 01:24:16;;;;;;;3.73;3.43;;;23.90;44.50;;;;;;4983923;28;20481;-43
2022/06/03 01:27:06;;;;;;;3.30;3.10;;;23.90;44.50;;;;;;4987636;28;20503;-47
2022/06/03 01:29:56;;;;;;;3.70;3.40;;;23.90;44.50;;;;;;4991198;28;20468;-46
2022/06/03 01:32:42;;;;;;;3.90;3.43;;;23.90;44.50;;;;;;4988908;28;20449;-43
2022/06/03 01:35:26;;;;;;;3.60;3.20;;;23.90;44.40;;;;;;4974275;28;20457;-44
2022/06/03 01:38:12;;;;;;;3.20;3.00;;;23.90;44.50;;;;;;4987612;28;20499;-44
2022/06/03 01:41:06;;;;;;;3.50;3.30;;;23.90;44.50;;;;;;4984771;28;20804;-43
2022/06/03 01:43:59;;;;;;;3.10;2.90;;;23.80;44.60;;;;;;4984162;28;20965;-44
2022/06/03 01:46:35;;;;;;;3.30;3.10;;;23.80;44.60;;;;;;4976507;28;20681;-45
2022/06/03 01:49:26;;;;;;;3.53;3.10;;;23.80;44.60;;;;;;4984976;28;20540;-43
2022/06/03 01:52:13;;;;;;;3.07;2.87;;;23.70;44.60;;;;;;4981173;28;20831;-43
2022/06/03 01:55:16;;;;;;;4.03;3.33;;;23.60;44.70;;;;;;4980864;28;20491;-43
2022/06/03 01:58:13;;;;;;;3.67;3.37;;;23.60;44.80;;;;;;4985753;28;20485;-43
2022/06/03 02:01:03;;;;;;;3.80;3.40;;;23.50;45.00;;;;;;4984250;28;20453;-42
2022/06/03 02:04:06;;;;;;;4.03;3.73;;;23.30;45.30;;;;;;4982198;28;21008;-42
2022/06/03 02:06:49;;;;;;;3.40;3.20;;;23.20;45.70;;;;;;4977552;28;20551;-43
2022/06/03 02:09:39;;;;;;;6.67;3.93;;;23.10;45.90;;;;;;4985022;28;20453;-43
2022/06/03 02:12:29;;;;;;;5.00;3.60;;;23.10;45.90;;;;;;4986585;28;20548;-46
2022/06/03 02:15:28;;;;;;;3.90;3.60;;;23.10;45.80;;;;;;4989273;28;21020;-44
2022/06/03 02:18:17;;;;;;;3.13;2.80;;;23.10;45.80;;;;;;4987222;28;20987;-43
2022/06/03 02:21:01;;;;;;;3.40;3.20;;;23.10;45.80;;;;;;4986221;28;22189;-44
2022/06/03 02:24:04;;;;;;;3.47;3.27;;;23.10;45.70;;;;;;4983337;28;20495;-43
2022/06/03 02:26:48;;;;;;;3.60;3.30;;;23.10;45.90;;;;;;4980122;28;20457;-45
2022/06/03 02:32:39;;;;;;;3.60;3.00;;;23.00;45.70;;;;;;4988223;28;21044;-43
2022/06/03 02:35:49;;;;;;;4.80;3.00;;;23.00;45.90;;;;;;4983339;28;20457;-44
2022/06/03 02:38:34;;;;;;;3.87;3.57;;;22.90;46.00;;;;;;4985348;28;20505;-45
2022/06/03 02:41:38;;;;;;;3.60;3.40;;;23.00;46.20;;;;;;4989307;28;20918;-44
2022/06/03 02:44:15;;;;;;;4.10;3.80;;;23.00;46.60;;;;;;4984553;28;20453;-44
2022/06/03 02:46:44;;;;;;;3.87;3.57;;;22.90;46.80;;;;;;4979895;28;20453;-43
2022/06/03 02:49:21;;;;;;;3.30;3.07;;;23.00;47.00;;;;;;4976587;28;20508;-45
2022/06/03 02:52:32;;;;;;;4.67;3.57;;;22.90;46.90;;;;;;4986265;28;20438;-43
2022/06/03 02:55:22;;;;;;;3.97;3.67;;;23.00;46.90;;;;;;4967921;28;20485;-43
2022/06/03 02:58:05;;;;;;;3.40;3.10;;;23.00;46.90;;;;;;4987197;28;21065;-43
2022/06/03 03:01:01;;;;;;;3.03;2.83;;;23.00;46.70;;;;;;4987699;28;20465;-44
2022/06/03 03:03:30;;;;;;;3.30;3.00;;;23.00;46.80;;;;;;4984233;28;20485;-43
2022/06/03 03:06:16;;;;;;;3.23;3.03;;;23.00;46.80;;;;;;4989905;28;20461;-45
2022/06/03 03:09:15;;;;;;;3.90;3.60;;;23.00;46.70;;;;;;4989147;28;21419;-44
2022/06/03 03:11:46;;;;;;;4.10;3.70;;;23.00;46.70;;;;;;4980908;28;20441;-44
2022/06/03 03:14:51;;;;;;;4.00;3.70;;;22.90;46.70;;;;;;4990249;28;20973;-45
2022/06/03 03:17:47;;;;;;;6.13;3.60;;;22.90;46.80;;;;;;4987156;28;20496;-44
2022/06/03 03:20:38;;;;;;;4.07;3.67;;;22.90;46.80;;;;;;4988397;28;20489;-43
2022/06/03 03:23:50;;;;;;;7.23;3.70;;;22.80;47.00;;;;;;4989842;28;20576;-43
2022/06/03 03:26:36;;;;;;;3.77;3.57;;;22.80;46.70;;;;;;4975899;28;20458;-43
2022/06/03 03:29:08;;;;;;;3.73;3.53;;;22.60;47.10;;;;;;4987966;28;20460;-43
2022/06/03 03:31:44;;;;;;;5.27;4.37;;;22.20;48.10;;;;;;4989181;28;20476;-43
2022/06/03 03:34:40;;;;;;;4.20;3.90;;;21.90;48.90;;;;;;4980996;28;20836;-43
2022/06/03 03:37:44;;;;;;;3.90;3.70;;;21.60;49.80;;;;;;4989719;28;20524;-43
2022/06/03 03:40:15;;;;;;;4.00;3.70;;;21.40;50.30;;;;;;4973740;28;20458;-42
2022/06/03 03:43:08;;;;;;;4.00;3.67;;;21.30;50.20;;;;;;4980134;28;20453;-43
2022/06/03 03:45:48;;;;;;;5.10;4.10;;;21.20;50.40;;;;;;4982288;28;20800;-43
2022/06/03 03:48:55;;;;;;;4.40;4.00;;;21.10;50.60;;;;;;4985197;28;20441;-43
2022/06/03 03:51:54;;;;;;;5.17;4.13;;;21.10;50.60;;;;;;4987907;28;20442;-43
2022/06/03 03:54:40;;;;;;;5.90;4.03;;;21.10;51.00;;;;;;4982688;28;20482;-43
2022/06/03 03:57:24;;;;;;;4.40;4.10;;;20.90;51.40;;;;;;4987730;28;20477;-43
2022/06/03 04:00:08;;;;;;;4.73;4.33;;;20.80;51.80;;;;;;4991752;28;20465;-43
2022/06/03 04:03:04;;;;;;;5.70;4.03;;;20.80;52.20;;;;;;4987739;28;20543;-43
2022/06/03 04:05:38;;;;;;;6.30;5.70;;;20.80;51.60;;;;;;4989842;28;20445;-44
2022/06/03 04:08:35;;;;;;;7.33;6.20;;;20.60;52.00;;;;;;4984597;28;20964;-43
2022/06/03 04:11:38;;;;;;;11.47;10.00;;;20.40;52.50;;;;;;4988468;28;20481;-43
2022/06/03 04:14:25;;;;;;;5.80;5.30;;;20.50;52.30;;;;;;4982478;28;20452;-44
2022/06/03 04:17:27;;;;;;;4.63;4.10;;;20.50;52.40;;;;;;4989579;28;20453;-43
2022/06/03 04:20:27;;;;;;;6.97;4.30;;;20.40;52.40;;;;;;4988530;28;20967;-43
2022/06/03 04:23:38;;;;;;;4.53;4.23;;;19.90;53.60;;;;;;4979698;28;20477;-43
2022/06/03 04:26:22;;;;;;;4.70;3.90;;;19.80;54.20;;;;;;4981014;28;21033;-43
2022/06/03 04:29:34;;;;;;;4.40;4.10;;;19.80;54.20;;;;;;5004363;28;20496;-43
2022/06/03 04:32:20;;;;;;;4.80;4.00;;;19.90;54.20;;;;;;4983095;28;20457;-43
2022/06/03 04:35:29;;;;;;;4.93;4.53;;;20.00;53.80;;;;;;4980646;28;20972;-42
2022/06/03 04:38:19;;;;;;;8.53;4.10;;;20.10;53.50;;;;;;4983991;28;20507;-43
2022/06/03 04:41:22;;;;;;;9.33;3.77;;;20.10;53.40;;;;;;4984134;28;20466;-43
2022/06/03 04:44:18;;;;;;;3.97;3.60;;;20.20;55.60;;;;;;4988991;28;20453;-43
2022/06/03 04:47:07;;;;;;;3.83;3.27;;;20.70;53.80;;;;;;4985025;28;20446;-43
2022/06/03 04:50:21;;;;;;;4.03;3.73;;;21.00;52.00;;;;;;4983000;28;20537;-44
2022/06/03 04:53:05;;;;;;;5.93;4.20;;;21.20;51.60;;;;;;4981583;28;20492;-44
2022/06/03 04:55:58;;;;;;;5.00;4.60;;;21.40;50.80;;;;;;4982153;28;21039;-45
2022/06/03 04:58:38;;;;;;;4.67;4.30;;;21.50;50.70;;;;;;4981721;28;20489;-45
2022/06/03 05:01:06;;;;;;;4.40;4.10;;;21.40;50.70;;;;;;4984428;28;20468;-43
2022/06/03 05:03:51;;;;;;;4.77;4.37;;;21.10;51.40;;;;;;4988697;28;20474;-47
2022/06/03 05:07:01;;;;;;;4.60;4.20;;;21.20;51.00;;;;;;4986990;28;22375;-44
2022/06/03 05:09:47;;;;;;;4.73;4.33;;;21.30;50.90;;;;;;4981632;28;20520;-44
2022/06/03 05:12:37;;;;;;;4.00;3.70;;;21.60;50.40;;;;;;4980438;28;20449;-46
2022/06/03 05:15:21;;;;;;;4.33;4.03;;;21.90;50.30;;;;;;4988153;28;20457;-47
2022/06/03 05:18:34;;;;;;;4.27;3.87;;;22.10;49.80;;;;;;4988665;28;20481;-45
2022/06/03 05:21:36;;;;;;;4.20;3.90;;;22.30;48.90;;;;;;4984114;28;20477;-45
2022/06/03 05:24:23;;;;;;;4.13;3.83;;;22.50;48.60;;;;;;4988060;28;20491;-44
2022/06/03 05:27:10;;;;;;;4.20;3.90;;;22.60;48.50;;;;;;4983711;28;20817;-44
2022/06/03 05:29:38;;;;;;;3.90;3.60;;;22.70;48.30;;;;;;4983207;28;21076;-45
2022/06/03 05:32:32;;;;;;;5.83;3.97;;;22.70;48.00;;;;;;4980914;28;20501;-45
2022/06/03 05:35:17;;;;;;;5.00;3.53;;;22.90;47.80;;;;;;4987997;28;20488;-45
2022/06/03 05:37:54;;;;;;;4.10;3.80;;;23.00;47.70;;;;;;4981841;28;20485;-43
2022/06/03 05:40:37;;;;;;;4.20;3.90;;;23.10;47.60;;;;;;4986504;28;20932;-43
2022/06/03 05:43:08;;;;;;;5.83;4.80;;;23.10;47.70;;;;;;4980109;28;20453;-43
2022/06/03 05:46:06;;;;;;;9.43;4.70;;;23.20;47.50;;;;;;4987618;28;20524;-45
2022/06/03 05:49:26;;;;;;;5.23;4.30;;;23.30;47.90;;;;;;4990214;28;20868;-43
2022/06/03 05:52:15;;;;;;;5.20;4.70;;;23.30;47.20;;;;;;4950982;28;20470;-44
2022/06/03 05:54:53;;;;;;;5.57;4.70;;;23.00;48.80;;;;;;4949050;28;20598;-43
2022/06/03 05:57:33;;;;;;;4.07;3.87;;;22.40;50.20;;;;;;4975644;28;20544;-44
2022/06/03 06:00:26;;;;;;;4.23;3.93;;;22.40;50.60;;;;;;4984050;28;20540;-44
2022/06/03 06:03:13;;;;;;;5.23;4.83;;;22.50;50.80;;;;;;4988061;28;20450;-44
2022/06/03 06:06:07;;;;;;;3.63;3.33;;;22.30;51.40;;;;;;4984137;28;21269;-43
2022/06/03 06:08:40;;;;;;;4.87;4.47;;;22.30;51.70;;;;;;4986593;28;20623;-42
2022/06/03 06:11:32;;;;;;;4.80;4.40;;;22.60;51.40;;;;;;4990980;28;21046;-45
2022/06/03 06:14:06;;;;;;;4.93;4.53;;;22.90;51.00;;;;;;4993988;28;20464;-43
2022/06/03 06:16:42;;;;;;;5.90;4.63;;;23.20;50.40;;;;;;4992699;28;20436;-43
2022/06/03 06:19:24;;;;;;;5.40;4.90;;;23.40;50.50;;;;;;4993787;28;20480;-44
2022/06/03 06:22:28;;;;;;;5.60;5.20;;;23.10;50.90;;;;;;4993172;28;20440;-43
2022/06/03 06:25:05;;;;;;;4.20;3.90;;;23.00;50.80;;;;;;4992701;28;20803;-43
2022/06/03 06:27:57;;;;;;;4.80;4.50;;;23.00;51.20;;;;;;4992898;28;20445;-43
2022/06/03 06:30:50;;;;;;;5.13;4.73;;;23.00;51.30;;;;;;4993443;28;20462;-43
2022/06/03 06:33:56;;;;;;;5.97;5.10;;;23.20;50.70;;;;;;4993450;28;20438;-43
2022/06/03 06:36:59;;;;;;;5.07;4.67;;;23.20;51.40;;;;;;4992294;28;20436;-43
2022/06/03 06:39:51;;;;;;;5.07;4.57;;;23.20;50.90;;;;;;4992879;28;20438;-43
2022/06/03 06:42:30;;;;;;;5.00;4.60;;;23.40;50.50;;;;;;4992895;28;20426;-43
2022/06/03 06:45:14;;;;;;;4.80;4.40;;;23.60;49.90;;;;;;4993067;28;20835;-43
2022/06/03 06:47:49;;;;;;;5.73;5.20;;;23.90;49.80;;;;;;4992692;28;20496;-43
2022/06/03 06:50:35;;;;;;;5.10;4.53;;;24.10;49.70;;;;;;4993326;28;20425;-45
2022/06/03 06:53:39;;;;;;;5.00;4.57;;;24.30;49.20;;;;;;4992841;28;20937;-43
2022/06/03 06:56:21;;;;;;;3.93;3.73;;;24.10;49.20;;;;;;4974112;28;20470;-43
2022/06/03 06:58:56;;;;;;;5.40;5.00;;;24.10;49.80;;;;;;4993237;28;20478;-43
2022/06/03 07:01:41;;;;;;;4.97;4.43;;;24.50;49.40;;;;;;4992412;28;20513;-44
2022/06/03 07:04:14;;;;;;;4.53;4.23;;;24.80;48.80;;;;;;4990970;28;20984;-43
2022/06/03 07:06:42;;;;;;;4.67;4.27;;;25.00;48.30;;;;;;4992137;28;20468;-44
2022/06/03 07:09:11;;;;;;;4.90;4.50;;;25.20;47.90;;;;;;4992743;28;21003;-42
2022/06/03 07:12:04;;;;;;;6.20;4.70;;;25.40;47.40;;;;;;4992133;28;20849;-43
2022/06/03 07:14:35;;;;;;;5.73;5.23;;;25.20;47.80;;;;;;4992582;28;20441;-43
2022/06/03 07:20:27;;;;;;;4.90;4.60;;;25.50;47.50;;;;;;4992493;28;20452;-44
2022/06/03 07:23:02;;;;;;;4.63;4.23;;;25.80;47.00;;;;;;4992065;28;20437;-43
2022/06/03 07:25:48;;;;;;;5.63;5.13;;;25.90;46.90;;;;;;4992224;28;20908;-43
2022/06/03 07:29:00;;;;;;;5.30;4.90;;;26.20;46.30;;;;;;4991671;28;20524;-44
2022/06/03 07:31:48;;;;;;;4.83;4.43;;;26.60;45.70;;;;;;4968080;28;20529;-43
2022/06/03 07:34:20;;;;;;;4.70;4.40;;;26.80;45.40;;;;;;4984217;28;20438;-43
2022/06/03 07:37:17;;;;;;;4.80;4.40;;;27.10;45.00;;;;;;4972112;28;20437;-44
2022/06/03 07:39:48;;;;;;;4.90;4.50;;;27.00;45.30;;;;;;4972982;28;20432;-44
2022/06/03 07:42:19;;;;;;;4.67;4.23;;;27.20;45.30;;;;;;4972284;28;20472;-43
2022/06/03 07:45:12;;;;;;;4.40;4.00;;;27.50;44.50;;;;;;4972868;28;20426;-43
2022/06/03 07:47:38;;;;;;;5.43;3.90;;;27.80;43.90;;;;;;4972213;28;20429;-45
2022/06/03 07:50:07;;;;;;;5.40;4.90;;;28.10;44.10;;;;;;4972635;28;20525;-43
2022/06/03 07:52:54;;;;;;;5.33;4.43;;;28.30;43.90;;;;;;4972012;28;20202;-43
2022/06/03 07:55:23;;;;;;;5.90;4.13;;;28.50;43.00;;;;;;4984681;28;20485;-43
2022/06/03 07:58:05;;;;;;;4.40;4.10;;;28.80;43.00;;;;;;4990301;28;20498;-47
2022/06/03 08:00:35;;;;;;;5.53;5.17;;;28.90;41.90;;;;;;4991593;28;20433;-48
2022/06/03 08:03:14;;;;;;;4.63;4.20;;;29.00;41.30;;;;;;4991873;28;20914;-46
2022/06/03 08:05:42;;;;;;;5.13;4.73;;;29.10;41.50;;;;;;4990730;28;20437;-46
2022/06/03 08:10:58;;;;;;;5.13;4.63;;;29.40;41.90;;;;;;4991227;28;20433;-45
2022/06/03 08:13:31;;;;;;;4.90;3.90;;;29.50;41.70;;;;;;4991735;28;20426;-44
2022/06/03 08:16:07;;;;;;;4.30;3.90;;;29.60;41.10;;;;;;4990596;28;20438;-46
2022/06/03 08:18:40;;;;;;;4.00;3.70;;;29.70;40.70;;;;;;4991408;28;21003;-47
2022/06/03 08:21:11;;;;;;;5.57;3.70;;;30.00;41.00;;;;;;4990615;28;20469;-45
2022/06/03 08:23:38;;;;;;;3.77;3.57;;;30.10;40.50;;;;;;4991239;28;20913;-44
2022/06/03 08:26:16;;;;;;;4.10;3.77;;;30.20;40.30;;;;;;4989045;28;20422;-47
2022/06/03 08:28:51;;;;;;;4.43;4.13;;;30.40;39.90;;;;;;4991345;28;20422;-44
2022/06/03 08:31:21;;;;;;;3.87;3.57;;;30.60;39.90;;;;;;4990927;28;20475;-44
2022/06/03 08:33:52;;;;;;;4.23;4.03;;;30.80;38.80;;;;;;4991138;28;20422;-46
2022/06/03 08:36:23;;;;;;;3.60;3.30;;;30.90;38.20;;;;;;4990509;28;20418;-45
2022/06/03 08:39:25;;;;;;;3.80;3.40;;;30.90;38.00;;;;;;4991234;28;20540;-45
2022/06/03 08:42:09;;;;;;;4.17;3.50;;;30.90;37.10;;;;;;4989242;28;20500;-45
2022/06/03 08:44:55;;;;;;;3.47;3.27;;;30.70;38.10;;;;;;4990833;28;20441;-45
2022/06/03 08:47:36;;;;;;;3.20;3.00;;;30.50;38.50;;;;;;4990776;28;20935;-48
2022/06/03 08:50:28;;;;;;;3.60;3.40;;;30.70;38.60;;;;;;4991207;28;20440;-45
2022/06/03 08:53:00;;;;;;;5.30;4.00;;;30.60;38.30;;;;;;4988949;28;20503;-48
2022/06/03 08:55:34;;;;;;;7.20;3.30;;;30.60;39.00;;;;;;4976838;28;20470;-47
2022/06/03 08:58:09;;;;;;;4.37;3.97;;;30.60;39.50;;;;;;4988766;28;20498;-45
2022/06/03 09:00:55;;;;;;;4.70;3.43;;;30.80;38.90;;;;;;4990670;28;20790;-44
2022/06/03 09:03:23;;;;;;;3.87;3.57;;;31.30;38.00;;;;;;4991089;28;20467;-47
2022/06/03 09:06:24;;;;;;;3.73;3.20;;;31.70;37.60;;;;;;4990334;28;20426;-47
2022/06/03 09:09:00;;;;;;;3.50;3.30;;;31.70;37.60;;;;;;4978385;28;20485;-44
2022/06/03 09:11:48;;;;;;;3.30;3.10;;;32.10;37.50;;;;;;4978805;28;20457;-47
2022/06/03 09:14:21;;;;;;;5.40;3.87;;;32.30;36.40;;;;;;4990933;28;20971;-44
2022/06/03 09:16:50;;;;;;;4.20;3.87;;;31.60;37.10;;;;;;4990200;28;20437;-44
2022/06/03 09:19:30;;;;;;;5.50;4.00;;;31.50;37.60;;;;;;4992961;28;20453;-44
2022/06/03 09:22:06;;;;;;;3.47;3.27;;;31.50;38.20;;;;;;4994319;28;20439;-45
2022/06/03 09:24:34;;;;;;;3.47;3.17;;;31.70;37.90;;;;;;4994775;28;20433;-44
2022/06/03 09:27:02;;;;;;;4.10;3.70;;;32.10;37.10;;;;;;4993635;28;20524;-48
2022/06/03 09:29:28;;;;;;;3.70;3.40;;;32.10;36.80;;;;;;4994402;28;20437;-45
2022/06/03 09:32:00;;;;;;;3.97;3.67;;;32.30;36.20;;;;;;4993994;28;20813;-44
2022/06/03 09:34:40;;;;;;;4.20;3.90;;;32.30;36.50;;;;;;4994629;28;20434;-44
2022/06/03 09:37:08;;;;;;;3.93;3.63;;;32.40;35.90;;;;;;4993193;28;20417;-44
2022/06/03 09:39:34;;;;;;;4.20;3.83;;;32.20;37.00;;;;;;4994564;28;20472;-44
2022/06/03 09:42:00;;;;;;;3.90;3.60;;;32.40;36.70;;;;;;4993694;28;20422;-44
2022/06/03 09:44:27;;;;;;;5.83;3.43;;;32.60;35.80;;;;;;4994417;28;20321;-46
2022/06/03 09:46:59;;;;;;;3.43;3.13;;;32.80;35.80;;;;;;4991911;28;20472;-44
2022/06/03 09:49:26;;;;;;;3.03;2.83;;;33.20;35.10;;;;;;4994450;28;20430;-44
2022/06/03 09:51:55;;;;;;;3.40;3.20;;;33.60;34.50;;;;;;4993743;28;20430;-44
2022/06/03 09:54:35;;;;;;;3.50;3.10;;;34.00;34.50;;;;;;4989250;28;20524;-44
2022/06/03 09:57:21;;;;;;;3.13;2.93;;;34.50;33.00;;;;;;4988114;28;20437;-44
2022/06/03 10:00:03;;;;;;;3.37;3.17;;;34.70;32.90;;;;;;4994058;28;20860;-45
2022/06/03 10:02:30;;;;;;;3.50;3.20;;;34.60;32.70;;;;;;4993570;28;20441;-48
2022/06/03 10:04:56;;;;;;;3.27;3.13;;;34.80;32.40;;;;;;4993468;28;20430;-45
2022/06/03 10:07:25;;;;;;;3.97;3.43;;;35.00;32.30;;;;;;4993389;28;20430;-46
2022/06/03 10:12:50;;;;;;;3.73;3.43;;;35.20;31.70;;;;;;4991996;28;20549;-46
2022/06/03 10:15:38;;;;;;;3.03;2.83;;;35.30;31.50;;;;;;4993734;28;20429;-45
2022/06/03 10:18:24;;;;;;;4.20;2.80;;;35.60;30.50;;;;;;4993713;28;20509;-50
2022/06/03 10:20:54;;;;;;;3.27;3.00;;;36.00;30.40;;;;;;4992365;28;20819;-44
2022/06/03 10:23:21;;;;;;;3.73;3.43;;;35.50;30.10;;;;;;4994076;28;20804;-48
2022/06/03 10:25:49;;;;;;;4.30;3.80;;;35.10;31.20;;;;;;4993132;28;20921;-49
2022/06/03 10:28:15;;;;;;;3.10;2.90;;;35.30;31.20;;;;;;4993630;28;20433;-45
2022/06/03 10:30:42;;;;;;;3.20;3.00;;;35.60;30.50;;;;;;4992434;28;20451;-46
2022/06/03 10:33:19;;;;;;;3.20;3.00;;;35.80;30.80;;;;;;4993101;28;20564;-46
2022/06/03 10:35:46;;;;;;;3.40;3.10;;;36.10;29.90;;;;;;4992548;28;20807;-46
2022/06/03 10:38:17;;;;;;;2.87;2.67;;;36.30;29.70;;;;;;4993293;28;20469;-45
2022/06/03 10:40:50;;;;;;;2.90;2.70;;;36.50;30.50;;;;;;4991040;28;20437;-44
2022/06/03 10:43:34;;;;;;;3.60;2.80;;;36.80;29.80;;;;;;4993337;28;20424;-46
2022/06/03 10:46:18;;;;;;;3.20;2.90;;;37.00;28.00;;;;;;4992348;28;20445;-45
2022/06/03 10:48:45;;;;;;;3.50;3.30;;;37.30;28.70;;;;;;4992936;28;20527;-44
2022/06/03 11:02:43;;;;;;;3.00;2.80;;;37.50;28.20;;;;;;4992628;28;20492;-49
2022/06/03 11:05:12;;;;;;;2.70;2.50;;;37.60;28.80;;;;;;4992516;28;20421;-49
2022/06/03 11:07:37;;;;;;;3.23;3.03;;;37.60;28.00;;;;;;5005610;28;20492;-50
2022/06/03 11:10:16;;;;;;;3.00;2.60;;;37.80;27.60;;;;;;4992964;28;20417;-47
2022/06/03 11:12:43;;;;;;;2.83;2.63;;;37.80;27.80;;;;;;4991253;28;20205;-45
2022/06/03 11:15:31;;;;;;;3.23;3.03;;;37.90;28.00;;;;;;4992407;28;20433;-45
2022/06/03 11:17:59;;;;;;;3.37;3.17;;;37.90;28.00;;;;;;4992588;28;20445;-48
2022/06/03 11:20:39;;;;;;;3.10;2.90;;;37.80;27.40;;;;;;4992456;28;20443;-49
2022/06/03 11:23:07;;;;;;;2.83;2.63;;;37.60;27.60;;;;;;4992661;28;20432;-49
2022/06/03 11:25:36;;;;;;;2.80;2.60;;;37.50;27.90;;;;;;4991581;28;20512;-46
2022/06/03 11:28:07;;;;;;;3.40;3.10;;;37.30;29.20;;;;;;4992313;28;20492;-46
2022/06/03 11:30:53;;;;;;;4.50;3.27;;;37.20;29.30;;;;;;4992142;28;20437;-45
2022/06/03 11:33:41;;;;;;;3.00;2.80;;;37.10;29.30;;;;;;4991597;28;20433;-49
2022/06/03 11:36:35;;;;;;;2.77;2.63;;;37.00;28.80;;;;;;4991626;28;20547;-48
2022/06/03 11:39:09;;;;;;;2.90;2.70;;;36.90;28.80;;;;;;4992341;28;20444;-48
2022/06/03 11:41:44;;;;;;;3.00;2.80;;;36.80;29.10;;;;;;4991116;28;20430;-46
2022/06/03 11:44:19;;;;;;;3.30;3.00;;;36.70;29.70;;;;;;4992497;28;20868;-48
2022/06/03 11:47:08;;;;;;;3.43;3.07;;;36.60;29.70;;;;;;4991312;28;20440;-44
2022/06/03 11:49:34;;;;;;;5.50;3.40;;;36.40;29.90;;;;;;4991977;28;20438;-48
2022/06/03 11:52:00;;;;;;;3.60;3.37;;;36.20;30.00;;;;;;4991714;28;20432;-45
2022/06/03 11:54:27;;;;;;;6.20;4.17;;;36.00;30.80;;;;;;4986474;28;20243;-48
2022/06/03 11:56:54;;;;;;;3.77;3.47;;;35.90;32.00;;;;;;4980451;28;20454;-45
2022/06/03 11:59:31;;;;;;;6.07;3.50;;;35.70;34.50;;;;;;4991923;28;20430;-47
2022/06/03 12:02:13;;;;;;;5.23;2.90;;;35.60;36.60;;;;;;5065330;28;20599;-46
2022/06/03 12:04:55;;;;;;;4.40;3.80;;;35.30;36.90;;;;;;5067116;28;20444;-44
2022/06/03 12:07:41;;;;;;;5.30;3.67;;;35.10;36.60;;;;;;5066749;28;20533;-48
2022/06/03 12:10:10;;;;;;;7.30;4.33;;;34.80;37.10;;;;;;5067113;28;20434;-45
2022/06/03 12:15:40;;;;;;;4.23;3.83;;;34.50;37.70;;;;;;5066958;28;20437;-44
2022/06/03 12:18:11;;;;;;;3.90;3.57;;;34.30;37.90;;;;;;5067072;28;20484;-48
2022/06/03 12:20:55;;;;;;;4.50;4.10;;;34.10;38.30;;;;;;5066326;28;20493;-46
2022/06/03 12:23:20;;;;;;;3.90;3.60;;;34.00;39.10;;;;;;5067163;28;20529;-46
2022/06/03 12:25:50;;;;;;;4.27;3.77;;;33.90;39.40;;;;;;5066158;28;20510;-45
2022/06/03 12:28:27;;;;;;;7.73;5.30;;;33.80;39.20;;;;;;5065172;28;20239;-45
2022/06/03 12:30:57;;;;;;;4.97;4.47;;;33.70;39.50;;;;;;5066644;28;20434;-45
2022/06/03 12:33:48;;;;;;;5.10;4.60;;;33.70;40.00;;;;;;5066945;28;20476;-44
2022/06/03 12:36:32;;;;;;;5.10;4.50;;;33.70;39.80;;;;;;5065561;28;20427;-45
2022/06/03 12:39:01;;;;;;;4.60;4.30;;;33.70;39.90;;;;;;5066804;28;20423;-45
2022/06/03 12:41:44;;;;;;;5.23;4.60;;;33.70;39.00;;;;;;5065837;28;20981;-47
2022/06/03 12:44:32;;;;;;;5.30;4.90;;;33.60;38.90;;;;;;5066556;28;20933;-46
2022/06/03 12:47:22;;;;;;;5.67;4.00;;;33.60;39.00;;;;;;5066053;28;20537;-44
2022/06/03 12:49:57;;;;;;;4.77;4.47;;;33.60;38.70;;;;;;5066232;28;20789;-44
2022/06/03 12:52:25;;;;;;;4.80;3.83;;;33.60;39.20;;;;;;5065992;28;20951;-44
2022/06/03 12:55:04;;;;;;;6.00;3.70;;;33.60;39.10;;;;;;5055277;28;20431;-44
2022/06/03 12:58:11;;;;;;;4.40;4.10;;;33.60;38.70;;;;;;5045442;28;20773;-45
2022/06/03 13:00:50;;;;;;;6.47;3.87;;;33.70;38.50;;;;;;5023150;28;20531;-45
2022/06/03 13:03:15;;;;;;;7.20;4.50;;;33.70;38.10;;;;;;5033669;28;20435;-44
2022/06/03 13:05:45;;;;;;;7.20;5.53;;;33.70;39.00;;;;;;5045270;28;20427;-45
2022/06/03 13:08:34;;;;;;;6.30;5.63;;;33.60;39.00;;;;;;5046298;28;20193;-47
2022/06/03 13:11:08;;;;;;;5.27;4.77;;;33.60;38.70;;;;;;5045723;28;20435;-46
2022/06/03 13:13:46;;;;;;;4.87;4.57;;;33.60;38.80;;;;;;5032599;28;20911;-45
2022/06/03 13:16:31;;;;;;;4.60;4.20;;;33.50;38.90;;;;;;5032039;28;20461;-44
2022/06/03 13:19:01;;;;;;;4.90;4.50;;;33.50;39.40;;;;;;5032671;28;20493;-49
2022/06/03 13:21:47;;;;;;;4.40;4.10;;;33.40;40.10;;;;;;5029149;28;20525;-46
2022/06/03 13:24:21;;;;;;;4.90;4.17;;;33.40;40.60;;;;;;5032667;28;20424;-46
2022/06/03 13:26:51;;;;;;;5.57;5.07;;;33.30;40.40;;;;;;5031976;28;20474;-45
2022/06/03 13:29:52;;;;;;;5.33;4.93;;;33.20;42.20;;;;;;5032814;28;20420;-45
2022/06/03 13:32:20;;;;;;;6.70;4.37;;;33.20;43.00;;;;;;5031822;28;20440;-48
2022/06/03 13:34:46;;;;;;;5.93;4.70;;;33.20;43.20;;;;;;5030990;28;20444;-44
2022/06/03 13:37:31;;;;;;;5.10;4.70;;;33.10;43.10;;;;;;5031511;28;20458;-44
2022/06/03 13:39:57;;;;;;;5.33;4.93;;;33.10;43.10;;;;;;5032354;28;21053;-45
2022/06/03 13:42:57;;;;;;;5.00;4.60;;;33.00;43.00;;;;;;5031875;28;20460;-44
2022/06/03 13:45:25;;;;;;;5.87;5.43;;;32.80;42.70;;;;;;5031897;28;20199;-44
2022/06/03 13:47:54;;;;;;;5.20;4.90;;;32.70;42.40;;;;;;5031121;28;20439;-45
2022/06/03 13:50:41;;;;;;;5.37;4.97;;;32.50;42.20;;;;;;5031513;28;20425;-45
2022/06/03 13:53:12;;;;;;;6.17;4.50;;;32.40;42.20;;;;;;5032153;28;20443;-45
2022/06/03 13:55:38;;;;;;;5.53;5.03;;;32.40;42.30;;;;;;5030914;28;20538;-44
2022/06/03 13:58:27;;;;;;;5.93;4.77;;;32.30;42.30;;;;;;5032026;28;20907;-48
2022/06/03 14:01:22;;;;;;;6.00;5.47;;;32.30;42.50;;;;;;5029618;28;20585;-48
2022/06/03 14:04:14;;;;;;;8.73;6.00;;;32.30;43.00;;;;;;5024577;28;20491;-46
2022/06/03 14:06:45;;;;;;;8.63;5.57;;;32.30;44.60;;;;;;5031102;28;21036;-48
2022/06/03 14:09:19;;;;;;;5.67;5.17;;;32.20;45.10;;;;;;5031946;28;20432;-49
2022/06/03 14:11:48;;;;;;;6.37;5.77;;;32.10;44.70;;;;;;5031591;28;20424;-49
2022/06/03 14:14:14;;;;;;;5.63;5.10;;;32.10;44.60;;;;;;5031618;28;20436;-48
2022/06/03 14:16:53;;;;;;;6.27;5.10;;;32.00;44.40;;;;;;5029128;28;20444;-49
2022/06/03 14:19:37;;;;;;;5.30;4.90;;;32.00;44.00;;;;;;5031867;28;20196;-48
2022/06/03 14:22:20;;;;;;;5.23;4.80;;;32.00;43.60;;;;;;5030643;28;21005;-46
2022/06/03 14:25:18;;;;;;;5.67;5.13;;;32.00;43.70;;;;;;5030537;28;20435;-47
2022/06/03 14:27:50;;;;;;;7.20;5.20;;;32.00;43.50;;;;;;5030861;28;20420;-45
2022/06/03 14:30:29;;;;;;;5.07;4.67;;;31.90;43.30;;;;;;5031155;28;20435;-47
2022/06/03 14:32:58;;;;;;;5.60;4.50;;;31.90;42.90;;;;;;5031059;28;20432;-44